createdAt,value
2022-12-25T00:02:03.834Z,7.29
2022-12-25T00:07:25.959Z,7.16
2022-12-25T00:12:47.568Z,7.09
2022-12-25T00:18:09.721Z,7.04
2022-12-25T00:23:32.471Z,7.01
2022-12-25T00:28:56.223Z,7.02
2022-12-25T00:34:18.217Z,7.06
2022-12-25T00:39:40.547Z,7.09
2022-12-25T00:45:02.579Z,7.09
2022-12-25T00:50:24.416Z,7.08
2022-12-25T00:55:52.135Z,7.12
2022-12-25T01:01:14.318Z,7.16
2022-12-25T01:06:36.514Z,7.19
2022-12-25T01:11:58.353Z,7.23
2022-12-25T01:17:20.126Z,7.29
2022-12-25T01:22:42.709Z,7.35
2022-12-25T01:28:05.136Z,7.37
2022-12-25T01:33:27.064Z,7.40
2022-12-25T01:38:52.511Z,7.42
2022-12-25T01:44:13.937Z,7.35
2022-12-25T01:49:38.170Z,7.31
2022-12-25T01:55:04.103Z,7.27
2022-12-25T02:00:25.663Z,7.32
2022-12-25T02:05:48.275Z,7.32
2022-12-25T02:11:30.373Z,7.31
2022-12-25T02:17:00.173Z,7.38
2022-12-25T02:22:46.957Z,7.37
2022-12-25T02:28:27.542Z,7.26
2022-12-25T02:34:16.066Z,7.30
2022-12-25T02:39:56.627Z,7.31
2022-12-25T02:45:43.733Z,7.29
2022-12-25T02:51:27.095Z,7.33
2022-12-25T02:57:08.682Z,7.31
2022-12-25T03:02:50.756Z,7.24
2022-12-25T03:08:20.534Z,7.27
2022-12-25T03:13:43.973Z,7.24
2022-12-25T03:19:25.532Z,7.13
2022-12-25T03:25:05.865Z,7.12
2022-12-25T03:30:55.965Z,7.06
2022-12-25T03:36:28.562Z,6.95
2022-12-25T03:42:11.964Z,6.91
2022-12-25T03:47:52.462Z,6.83
2022-12-25T03:53:39.377Z,6.80
2022-12-25T03:59:23.836Z,6.82
2022-12-25T04:05:04.381Z,6.81
2022-12-25T04:10:45.280Z,6.79
2022-12-25T04:16:26.255Z,6.79
2022-12-25T04:22:06.967Z,6.80
2022-12-25T04:27:48.263Z,6.87
2022-12-25T04:33:29.058Z,6.90
2022-12-25T04:38:51.300Z,6.84
2022-12-25T04:44:13.734Z,6.85
2022-12-25T04:49:35.558Z,6.85
2022-12-25T04:54:57.486Z,6.82
2022-12-25T05:00:19.927Z,6.78
2022-12-25T05:05:41.945Z,6.78
2022-12-25T05:11:08.963Z,6.76
2022-12-25T05:16:31.054Z,6.75
2022-12-25T05:21:53.748Z,6.69
2022-12-25T05:27:15.980Z,6.65
2022-12-25T05:32:37.709Z,6.62
2022-12-25T05:37:59.545Z,6.61
2022-12-25T05:43:21.785Z,6.57
2022-12-25T05:48:43.904Z,6.50
2022-12-25T05:54:05.726Z,6.40
2022-12-25T05:59:31.368Z,6.31
2022-12-25T06:04:52.899Z,6.21
2022-12-25T06:10:14.626Z,6.11
2022-12-25T06:15:40.287Z,6.04
2022-12-25T06:21:07.380Z,5.95
2022-12-25T06:26:29.014Z,5.80
2022-12-25T06:31:57.289Z,5.74
2022-12-25T06:37:20.046Z,5.68
2022-12-25T06:42:42.265Z,5.63
2022-12-25T06:48:04.193Z,5.55
2022-12-25T06:53:26.304Z,5.53
2022-12-25T06:58:50.542Z,5.54
2022-12-25T07:04:23.022Z,5.50
2022-12-25T07:09:44.948Z,5.47
2022-12-25T07:15:08.086Z,5.44
2022-12-25T07:20:30.322Z,5.38
2022-12-25T07:25:56.094Z,5.33
2022-12-25T07:31:18.708Z,5.33
2022-12-25T07:36:40.816Z,5.33
2022-12-25T07:42:02.945Z,5.24
2022-12-25T07:47:25.044Z,5.19
2022-12-25T07:52:47.159Z,5.17
2022-12-25T07:58:09.352Z,5.19
2022-12-25T08:03:32.125Z,5.32
2022-12-25T08:08:54.384Z,5.31
2022-12-25T08:14:16.525Z,5.39
2022-12-25T08:19:38.475Z,5.34
2022-12-25T08:25:00.389Z,5.42
2022-12-25T08:30:22.334Z,5.60
2022-12-25T08:35:44.457Z,5.76
2022-12-25T08:41:06.574Z,5.81
2022-12-25T08:46:28.720Z,5.93
2022-12-25T08:51:50.837Z,6.11
2022-12-25T08:57:13.072Z,6.24
2022-12-25T09:02:35.071Z,6.29
2022-12-25T09:07:57.126Z,6.33
2022-12-25T09:13:19.057Z,6.45
2022-12-25T09:18:41.218Z,6.55
2022-12-25T09:24:04.543Z,6.62
2022-12-25T09:29:26.248Z,6.67
2022-12-25T09:34:48.080Z,6.77
2022-12-25T09:40:15.580Z,6.93
2022-12-25T09:45:38.971Z,7.09
2022-12-25T09:51:08.759Z,7.22
2022-12-25T09:56:32.654Z,7.23
2022-12-25T10:02:16.769Z,7.28
2022-12-25T10:07:50.937Z,7.43
2022-12-25T10:13:19.096Z,7.50
2022-12-25T10:18:59.479Z,7.56
2022-12-25T10:24:41.375Z,7.68
2022-12-25T10:30:14.468Z,7.87
2022-12-25T10:35:38.183Z,7.96
2022-12-25T10:41:02.908Z,8.07
2022-12-25T10:46:27.873Z,8.18
2022-12-25T10:51:50.093Z,8.23
2022-12-25T10:57:17.741Z,8.34
2022-12-25T11:02:40.776Z,8.45
2022-12-25T11:08:03.895Z,8.56
2022-12-25T11:13:27.947Z,8.68
2022-12-25T11:18:52.591Z,8.75
2022-12-25T11:24:22.465Z,8.85
2022-12-25T11:29:47.791Z,8.85
2022-12-25T11:35:13.025Z,8.84
2022-12-25T11:40:56.527Z,8.87
2022-12-25T11:46:39.597Z,8.93
2022-12-25T11:52:02.004Z,9.00
2022-12-25T11:57:26.757Z,9.03
2022-12-25T12:02:58.867Z,9.08
2022-12-25T12:08:20.967Z,9.17
2022-12-25T12:13:57.588Z,9.21
2022-12-25T12:19:29.636Z,9.31
2022-12-25T12:25:05.108Z,9.30
2022-12-25T12:30:31.453Z,9.31
2022-12-25T12:35:53.732Z,9.29
2022-12-25T12:41:16.510Z,9.29
2022-12-25T12:46:40.104Z,9.28
2022-12-25T12:52:10.591Z,9.28
2022-12-25T12:57:39.326Z,9.28
2022-12-25T13:03:16.460Z,9.30
2022-12-25T13:08:58.062Z,9.25
2022-12-25T13:14:22.880Z,9.25
2022-12-25T13:19:45.135Z,9.28
2022-12-25T13:25:18.996Z,9.24
2022-12-25T13:30:40.934Z,9.15
2022-12-25T13:36:04.465Z,9.17
2022-12-25T13:42:03.527Z,9.15
2022-12-25T13:47:38.704Z,9.10
2022-12-25T13:53:16.286Z,9.08
2022-12-25T13:58:39.756Z,9.01
2022-12-25T14:04:01.851Z,8.84
2022-12-25T14:09:24.178Z,8.68
2022-12-25T14:14:46.379Z,8.59
2022-12-25T14:20:22.468Z,8.50
2022-12-25T14:25:46.087Z,8.37
2022-12-25T14:31:11.588Z,8.32
2022-12-25T14:36:34.397Z,8.33
2022-12-25T14:41:56.827Z,8.13
2022-12-25T14:47:20.889Z,7.91
2022-12-25T14:52:43.693Z,7.90
2022-12-25T14:58:06.306Z,7.92
2022-12-25T15:03:34.535Z,7.86
2022-12-25T15:09:01.989Z,7.79
2022-12-25T15:14:25.080Z,7.73
2022-12-25T15:19:46.990Z,7.66
2022-12-25T15:25:14.438Z,7.42
2022-12-25T15:30:39.418Z,7.14
2022-12-25T15:36:01.117Z,6.94
2022-12-25T15:41:44.235Z,6.85
2022-12-25T15:47:06.560Z,6.77
2022-12-25T15:52:28.531Z,6.79
2022-12-25T15:57:52.407Z,6.83
2022-12-25T16:03:14.069Z,6.71
2022-12-25T16:08:36.368Z,6.64
2022-12-25T16:13:58.163Z,6.66
2022-12-25T16:19:20.225Z,6.69
2022-12-25T16:24:42.107Z,6.67
2022-12-25T16:30:04.592Z,6.67
2022-12-25T16:35:26.518Z,6.70
2022-12-25T16:40:59.790Z,6.71
2022-12-25T16:46:22.541Z,6.75
2022-12-25T16:51:44.347Z,6.77
2022-12-25T16:57:06.226Z,6.87
2022-12-25T17:02:28.458Z,6.99
2022-12-25T17:07:51.774Z,7.07
2022-12-25T17:13:13.984Z,7.07
2022-12-25T17:18:35.900Z,7.05
2022-12-25T17:24:03.090Z,6.91
2022-12-25T17:29:25.489Z,6.70
2022-12-25T17:34:47.510Z,6.51
2022-12-25T17:40:10.219Z,6.44
2022-12-25T17:45:31.924Z,6.43
2022-12-25T17:50:53.930Z,6.42
2022-12-25T17:56:16.859Z,6.44
2022-12-25T18:01:40.149Z,6.49
2022-12-25T18:07:03.499Z,6.54
2022-12-25T18:12:25.631Z,6.61
2022-12-25T18:17:47.869Z,6.67
2022-12-25T18:23:09.590Z,6.79
2022-12-25T18:28:32.220Z,6.94
2022-12-25T18:33:54.171Z,6.94
2022-12-25T18:39:16.089Z,6.81
2022-12-25T18:44:38.814Z,6.76
2022-12-25T18:50:01.455Z,6.82
2022-12-25T18:55:23.072Z,6.83
2022-12-25T19:00:45.330Z,6.78
2022-12-25T19:06:10.161Z,6.65
2022-12-25T19:11:31.972Z,6.54
2022-12-25T19:16:57.814Z,6.50
2022-12-25T19:22:19.549Z,6.46
2022-12-25T19:27:41.429Z,6.49
2022-12-25T19:33:03.190Z,6.45
2022-12-25T19:38:25.631Z,6.48
2022-12-25T19:43:48.968Z,6.59
2022-12-25T19:49:13.384Z,6.71
2022-12-25T19:54:35.233Z,6.62
2022-12-25T19:59:57.087Z,6.65
2022-12-25T20:05:18.790Z,6.57
2022-12-25T20:10:44.635Z,6.55
2022-12-25T20:16:09.030Z,6.50
2022-12-25T20:21:31.148Z,6.49
2022-12-25T20:26:58.852Z,6.43
2022-12-25T20:32:21.458Z,6.39
2022-12-25T20:37:43.686Z,6.35
2022-12-25T20:43:05.667Z,6.36
2022-12-25T20:48:28.071Z,6.38
2022-12-25T20:53:50.243Z,6.38
2022-12-25T20:59:12.739Z,6.29
2022-12-25T21:04:35.796Z,6.26
2022-12-25T21:09:57.863Z,6.25
2022-12-25T21:15:19.927Z,6.20
2022-12-25T21:20:44.490Z,6.15
2022-12-25T21:26:11.401Z,6.14
2022-12-25T21:31:56.153Z,6.26
2022-12-25T21:37:18.156Z,6.41
2022-12-25T21:42:39.981Z,6.44
2022-12-25T21:48:03.653Z,6.39
2022-12-25T21:53:25.403Z,6.34
2022-12-25T21:58:47.584Z,6.34
2022-12-25T22:04:09.731Z,6.33
2022-12-25T22:09:32.427Z,6.41
2022-12-25T22:14:58.048Z,6.42
2022-12-25T22:20:22.584Z,6.33
2022-12-25T22:25:44.348Z,6.32
2022-12-25T22:31:07.218Z,6.24
2022-12-25T22:36:28.811Z,6.22
2022-12-25T22:41:51.020Z,6.34
2022-12-25T22:47:12.728Z,6.40
2022-12-25T22:52:34.770Z,6.47
2022-12-25T22:57:56.929Z,6.59
2022-12-25T23:03:18.967Z,6.65
2022-12-25T23:08:40.901Z,6.62
2022-12-25T23:14:21.287Z,6.43
2022-12-25T23:20:01.672Z,6.32
2022-12-25T23:25:42.168Z,6.31
2022-12-25T23:31:04.306Z,6.26
2022-12-25T23:36:26.137Z,6.15
2022-12-25T23:41:48.174Z,5.99
2022-12-25T23:47:10.083Z,6.02
2022-12-25T23:52:32.216Z,6.06
2022-12-25T23:57:54.252Z,6.04
